Time;durP1;ratioP1;P1;durP2;ratioP2;P2;SDS_P1;SDS_P2;PMS_P1;PMS_P2;Temp;Humidity;BMP_temperature;BMP_pressure;BME280_temperature;BME280_humidity;BME280_pressure;Samples;Min_cycle;Max_cycle;Signal;HPM_P1;HPM_P2
2021/11/25 00:01:47;;;;;;;24.58;18.90;;;;;;;0.05;100.00;98066.28;10327738;28;20061;-58
2021/11/25 00:06:51;;;;;;;20.95;17.40;;;;;;;0.11;100.00;98063.22;10347873;28;20042;-61
2021/11/25 00:11:54;;;;;;;20.75;16.35;;;;;;;0.17;100.00;98052.22;10372974;28;20070;-65
2021/11/25 00:16:58;;;;;;;24.42;17.90;;;;;;;0.22;100.00;98060.69;10366227;28;20556;-60
2021/11/25 00:22:01;;;;;;;25.00;20.08;;;;;;;0.34;100.00;98056.34;10370352;28;20046;-58
2021/11/25 00:27:06;;;;;;;23.25;19.73;;;;;;;0.42;100.00;98047.84;10348401;28;20041;-59
2021/11/25 00:32:10;;;;;;;24.08;19.42;;;;;;;0.58;100.00;98037.88;10367462;28;20052;-57
2021/11/25 00:37:14;;;;;;;22.75;19.13;;;;;;;0.66;100.00;98042.66;10369766;28;20046;-58
2021/11/25 00:42:17;;;;;;;23.52;19.35;;;;;;;0.75;100.00;98043.81;10368151;28;20052;-59
2021/11/25 00:47:23;;;;;;;25.55;20.65;;;;;;;0.81;100.00;98032.75;10364957;28;20034;-59
2021/11/25 00:52:26;;;;;;;22.45;19.33;;;;;;;0.86;100.00;98030.63;10347940;28;20570;-59
2021/11/25 00:57:29;;;;;;;23.13;18.55;;;;;;;0.90;100.00;98024.13;10366881;28;20153;-63
2021/11/25 01:02:34;;;;;;;22.67;18.70;;;;;;;0.94;100.00;98021.25;10347858;28;20232;-58
2021/11/25 01:07:37;;;;;;;24.52;20.35;;;;;;;0.96;100.00;98011.41;10337458;28;20128;-61
2021/11/25 01:12:42;;;;;;;23.92;20.25;;;;;;;1.00;100.00;98015.53;10325732;28;20052;-58
2021/11/25 01:17:46;;;;;;;25.02;20.92;;;;;;;1.02;100.00;98009.16;10325607;28;20062;-58
2021/11/25 01:22:49;;;;;;;26.30;22.13;;;;;;;1.02;100.00;98002.97;10324073;28;20046;-62
2021/11/25 01:27:52;;;;;;;29.77;22.13;;;;;;;1.03;100.00;98004.69;10324951;28;20129;-60
2021/11/25 01:32:57;;;;;;;27.52;22.25;;;;;;;1.04;100.00;98001.94;10321665;28;20042;-59
2021/11/25 01:38:00;;;;;;;26.13;21.95;;;;;;;1.04;100.00;98001.94;10320746;28;20050;-62
2021/11/25 01:43:06;;;;;;;28.88;22.67;;;;;;;1.03;100.00;97991.41;10326172;28;20050;-58
2021/11/25 01:48:11;;;;;;;27.23;21.75;;;;;;;1.04;100.00;97993.09;10327477;28;20076;-58
2021/11/25 01:53:15;;;;;;;28.58;22.92;;;;;;;1.02;100.00;97981.75;10319402;28;20068;-58
2021/11/25 01:58:18;;;;;;;28.80;23.70;;;;;;;1.03;100.00;97983.44;10326529;28;20046;-59
2021/11/25 02:03:24;;;;;;;25.38;22.00;;;;;;;1.05;100.00;97973.59;10340401;28;20053;-63
2021/11/25 02:08:29;;;;;;;27.92;22.33;;;;;;;1.02;100.00;97961.41;10357315;28;20298;-59
2021/11/25 02:13:33;;;;;;;29.58;23.52;;;;;;;1.01;100.00;97957.06;10363342;28;20056;-57
2021/11/25 02:18:38;;;;;;;27.33;22.38;;;;;;;1.00;100.00;97951.88;10361901;28;20057;-59
2021/11/25 02:23:44;;;;;;;26.35;21.52;;;;;;;0.98;100.00;97945.81;10363801;28;20062;-58
2021/11/25 02:28:47;;;;;;;26.08;20.98;;;;;;;0.97;100.00;97936.16;10359015;28;20057;-62
2021/11/25 02:33:50;;;;;;;24.92;20.88;;;;;;;0.97;100.00;97941.47;10359027;28;20048;-59
2021/11/25 02:38:54;;;;;;;26.70;22.50;;;;;;;0.96;100.00;97929.19;10360255;28;20050;-61
2021/11/25 02:43:57;;;;;;;26.45;22.67;;;;;;;0.96;100.00;97929.19;10363521;28;20494;-58
2021/11/25 02:49:02;;;;;;;27.83;22.50;;;;;;;0.95;100.00;97916.88;10364527;28;20048;-57
2021/11/25 02:54:06;;;;;;;29.73;23.75;;;;;;;0.90;100.00;97909.25;10364490;28;20037;-63
2021/11/25 02:59:10;;;;;;;30.27;24.42;;;;;;;0.90;100.00;97907.44;10342208;28;20140;-58
2021/11/25 03:04:13;;;;;;;27.85;23.90;;;;;;;0.88;100.00;97904.03;10362258;28;20124;-67
2021/11/25 03:09:18;;;;;;;30.42;23.25;;;;;;;0.85;100.00;97901.63;10362102;28;20751;-59
2021/11/25 03:14:22;;;;;;;29.92;23.40;;;;;;;0.81;100.00;97894.84;10363424;28;20046;-59
2021/11/25 03:19:25;;;;;;;31.33;23.60;;;;;;;0.82;100.00;97888.59;10361728;28;20821;-58
2021/11/25 03:24:29;;;;;;;29.50;23.30;;;;;;;0.79;100.00;97883.50;10363521;28;20391;-59
2021/11/25 03:29:33;;;;;;;25.05;20.67;;;;;;;0.80;100.00;97879.91;10367603;28;20053;-60
2021/11/25 03:34:36;;;;;;;22.42;19.90;;;;;;;0.82;100.00;97874.50;10370411;28;20042;-58
2021/11/25 03:39:41;;;;;;;21.50;18.80;;;;;;;0.87;100.00;97873.22;10372498;28;20050;-60
2021/11/25 03:44:45;;;;;;;21.52;17.65;;;;;;;0.83;100.00;97869.06;10375347;28;20413;-61
2021/11/25 03:49:48;;;;;;;23.33;18.45;;;;;;;0.89;100.00;97865.13;10350874;28;20053;-63
2021/11/25 03:54:54;;;;;;;22.35;16.65;;;;;;;0.85;100.00;97867.16;10369932;28;20048;-64
2021/11/25 03:59:58;;;;;;;21.40;16.58;;;;;;;0.86;100.00;97850.28;10372097;28;20052;-61
2021/11/25 04:05:01;;;;;;;21.90;17.67;;;;;;;0.88;100.00;97842.22;10346537;28;20050;-59
2021/11/25 04:10:08;;;;;;;23.17;18.63;;;;;;;0.87;100.00;97848.47;10329577;28;20058;-65
2021/11/25 04:15:14;;;;;;;20.38;17.00;;;;;;;0.85;100.00;97838.00;10343683;28;20133;-61
2021/11/25 04:20:20;;;;;;;23.80;18.70;;;;;;;0.87;100.00;97830.78;10341397;28;20101;-62
2021/11/25 04:25:25;;;;;;;21.75;18.52;;;;;;;0.89;100.00;97826.19;10344647;28;20057;-62
2021/11/25 04:30:50;;;;;;;21.65;17.52;;;;;;;0.86;100.00;97829.09;10328978;28;20172;-64
2021/11/25 04:35:54;;;;;;;21.48;16.88;;;;;;;0.88;100.00;97819.19;10329636;28;20053;-64
2021/11/25 04:41:02;;;;;;;21.75;17.65;;;;;;;0.88;100.00;97821.84;10326707;28;20050;-61
2021/11/25 04:46:06;;;;;;;19.50;16.50;;;;;;;0.87;100.00;97808.69;10325574;28;20440;-63
2021/11/25 04:51:09;;;;;;;20.40;17.15;;;;;;;0.90;100.00;97814.59;10324604;28;20406;-63
2021/11/25 04:56:14;;;;;;;19.42;16.83;;;;;;;0.89;100.00;97801.47;10331765;28;20046;-64
2021/11/25 05:01:17;;;;;;;18.98;16.85;;;;;;;0.88;100.00;97784.69;10333956;28;20080;-63
2021/11/25 05:06:20;;;;;;;18.38;15.65;;;;;;;0.88;100.00;97779.41;10355228;28;20050;-60
2021/11/25 05:11:25;;;;;;;17.90;15.27;;;;;;;0.88;100.00;97778.56;10370954;28;20042;-62
2021/11/25 05:16:28;;;;;;;20.35;16.52;;;;;;;0.87;100.00;97775.09;10371870;28;20037;-63
2021/11/25 05:21:31;;;;;;;21.88;17.27;;;;;;;0.89;100.00;97774.97;10324950;28;20507;-63
2021/11/25 05:26:36;;;;;;;21.63;16.85;;;;;;;0.88;100.00;97771.44;10322929;28;20129;-64
2021/11/25 05:31:40;;;;;;;20.63;16.83;;;;;;;0.87;100.00;97780.38;10333186;28;20054;-63
2021/11/25 05:36:43;;;;;;;22.23;17.50;;;;;;;0.86;100.00;97788.44;10323558;28;20038;-62
2021/11/25 05:41:48;;;;;;;23.20;19.00;;;;;;;0.82;100.00;97793.13;10329291;28;20056;-62
2021/11/25 05:46:51;;;;;;;28.35;21.08;;;;;;;0.80;100.00;97784.44;10324209;28;20062;-64
2021/11/25 05:51:55;;;;;;;23.52;19.65;;;;;;;0.79;100.00;97769.50;10321209;28;20050;-62
2021/11/25 05:57:00;;;;;;;22.00;17.80;;;;;;;0.79;100.00;97764.19;10319765;28;20054;-62
2021/11/25 06:02:04;;;;;;;23.60;19.60;;;;;;;0.80;100.00;97755.28;10324279;28;20046;-63
2021/11/25 06:07:07;;;;;;;23.15;18.60;;;;;;;0.81;100.00;97759.63;10323589;28;20070;-61
2021/11/25 06:12:12;;;;;;;24.13;19.98;;;;;;;0.81;100.00;97756.97;10321569;28;20664;-59
2021/11/25 06:17:16;;;;;;;25.48;19.58;;;;;;;0.82;100.00;97758.66;10322108;28;20046;-65
2021/11/25 06:22:19;;;;;;;23.48;19.55;;;;;;;0.82;100.00;97766.63;10321408;28;20049;-61
2021/11/25 06:27:24;;;;;;;25.40;20.20;;;;;;;0.81;100.00;97764.94;10321945;28;20077;-64
2021/11/25 06:32:27;;;;;;;26.00;20.13;;;;;;;0.83;100.00;97763.00;10321487;28;20549;-63
2021/11/25 06:37:30;;;;;;;24.70;19.40;;;;;;;0.84;100.00;97763.84;10334463;28;20513;-62
2021/11/25 06:42:34;;;;;;;24.42;19.55;;;;;;;0.83;100.00;97763.00;10335804;28;20819;-64
2021/11/25 06:47:37;;;;;;;22.70;18.80;;;;;;;0.88;100.00;97773.25;10321911;28;20052;-64
2021/11/25 06:52:41;;;;;;;23.38;18.02;;;;;;;0.90;100.00;97761.56;10320848;28;20483;-63
2021/11/25 06:57:48;;;;;;;24.67;19.02;;;;;;;0.92;100.00;97770.25;10321357;28;20121;-63
2021/11/25 07:02:53;;;;;;;23.10;18.65;;;;;;;0.93;100.00;97773.78;10319965;28;20057;-61
2021/11/25 07:07:56;;;;;;;21.15;17.67;;;;;;;0.96;100.00;97783.28;10319542;28;20050;-60
2021/11/25 07:13:01;;;;;;;22.33;18.23;;;;;;;0.98;100.00;97778.72;10320625;28;20117;-64
2021/11/25 07:18:04;;;;;;;22.20;18.02;;;;;;;1.00;100.00;97774.16;10318803;28;20042;-59
2021/11/25 07:23:07;;;;;;;22.50;18.52;;;;;;;1.00;100.00;97764.38;10321386;28;20062;-62
2021/11/25 07:28:12;;;;;;;23.10;18.58;;;;;;;1.02;100.00;97764.25;10319597;28;20423;-63
2021/11/25 07:33:15;;;;;;;22.38;18.17;;;;;;;1.04;100.00;97767.63;10337316;28;20137;-62
2021/11/25 07:38:18;;;;;;;22.23;18.30;;;;;;;1.03;100.00;97758.84;10322143;28;20126;-56
2021/11/25 07:43:22;;;;;;;25.75;20.17;;;;;;;1.06;100.00;97760.41;10323908;28;20045;-64
2021/11/25 07:48:26;;;;;;;24.75;19.70;;;;;;;1.06;100.00;97760.41;10333104;28;20431;-62
2021/11/25 07:53:29;;;;;;;23.65;18.90;;;;;;;1.07;100.00;97756.78;10339104;28;20442;-61
2021/11/25 07:58:33;;;;;;;25.65;19.45;;;;;;;1.11;100.00;97758.25;10320464;28;20039;-64
2021/11/25 08:03:38;;;;;;;24.52;19.85;;;;;;;1.12;100.00;97765.22;10337488;28;20128;-64
2021/11/25 08:08:42;;;;;;;27.90;21.33;;;;;;;1.15;100.00;97765.00;10356683;28;20058;-63
2021/11/25 08:13:47;;;;;;;28.80;21.13;;;;;;;1.18;100.00;97745.34;10365293;28;21769;-61
2021/11/25 08:18:50;;;;;;;24.88;20.00;;;;;;;1.23;100.00;97736.06;10368561;28;20058;-65
2021/11/25 08:23:53;;;;;;;23.67;17.77;;;;;;;1.25;100.00;97746.56;10370772;28;20520;-64
2021/11/25 08:28:57;;;;;;;25.77;20.48;;;;;;;1.30;100.00;97747.03;10370210;28;20045;-64
2021/11/25 08:34:00;;;;;;;22.40;18.70;;;;;;;1.31;100.00;97750.56;10369717;28;20141;-63
2021/11/25 08:39:04;;;;;;;25.98;18.65;;;;;;;1.35;100.00;97754.66;10366067;28;20038;-63
2021/11/25 08:44:08;;;;;;;23.25;18.13;;;;;;;1.39;100.00;97753.44;10368372;28;20057;-61
2021/11/25 08:49:11;;;;;;;32.95;22.58;;;;;;;1.43;100.00;97752.25;10369274;28;20062;-62
2021/11/25 08:54:14;;;;;;;37.78;26.17;;;;;;;1.48;100.00;97734.13;10367483;28;20050;-62
2021/11/25 08:59:19;;;;;;;36.75;25.17;;;;;;;1.53;100.00;97715.19;10351365;28;20057;-63
2021/11/25 09:04:23;;;;;;;23.77;18.75;;;;;;;1.56;100.00;97711.47;10363846;28;20073;-63
2021/11/25 09:09:26;;;;;;;23.70;19.58;;;;;;;1.58;100.00;97713.03;10328086;28;20508;-66
2021/11/25 09:14:31;;;;;;;26.42;19.80;;;;;;;1.59;100.00;97713.88;10331426;28;20049;-61
2021/11/25 09:19:40;;;;;;;25.00;20.60;;;;;;;1.60;100.00;97724.38;10326258;28;20061;-65
2021/11/25 09:24:43;;;;;;;26.63;19.88;;;;;;;1.56;100.00;97724.75;10325819;28;20042;-61
2021/11/25 09:29:48;;;;;;;27.33;20.17;;;;;;;1.57;100.00;97727.25;10323933;28;20046;-61
2021/11/25 09:34:52;;;;;;;26.08;19.52;;;;;;;1.56;100.00;97730.88;10322509;28;20414;-63
2021/11/25 09:39:55;;;;;;;25.35;20.05;;;;;;;1.56;100.00;97727.41;10342465;28;20050;-63
2021/11/25 09:45:01;;;;;;;27.90;20.58;;;;;;;1.60;100.00;97718.19;10326344;28;20125;-63
2021/11/25 09:50:05;;;;;;;28.77;20.73;;;;;;;1.59;100.00;97708.59;10326556;28;20034;-64
2021/11/25 09:55:09;;;;;;;24.10;19.38;;;;;;;1.59;100.00;97708.59;10324449;28;20121;-66
2021/11/25 10:00:15;;;;;;;24.85;19.73;;;;;;;1.56;100.00;97714.13;10322672;28;20053;-61
2021/11/25 10:05:18;;;;;;;27.05;19.75;;;;;;;1.57;100.00;97705.19;10327508;28;20078;-61
2021/11/25 10:10:26;;;;;;;28.40;21.67;;;;;;;1.56;100.00;97687.56;10322648;28;20045;-65
2021/11/25 10:15:34;;;;;;;27.95;21.27;;;;;;;1.64;100.00;97683.34;10321855;28;20058;-64
2021/11/25 10:20:40;;;;;;;27.35;21.73;;;;;;;1.66;100.00;97683.22;10323353;28;20049;-66
2021/11/25 10:25:47;;;;;;;31.40;23.27;;;;;;;1.65;100.00;97681.53;10325099;28;20121;-65
2021/11/25 10:30:56;;;;;;;27.45;21.90;;;;;;;1.69;100.00;97661.72;10320046;28;20065;-66
2021/11/25 10:41:23;;;;;;;33.22;24.02;;;;;;;1.74;100.00;97675.47;10299882;28;20133;-65
2021/11/25 10:46:42;;;;;;;34.15;23.10;;;;;;;1.73;100.00;97676.44;10321773;28;20073;-64
2021/11/25 10:51:47;;;;;;;28.67;22.23;;;;;;;1.71;100.00;97669.56;10322479;28;20042;-64
2021/11/25 10:56:52;;;;;;;31.80;21.40;;;;;;;1.69;100.00;97680.31;10324078;28;20085;-70
2021/11/25 11:01:56;;;;;;;31.13;21.52;;;;;;;1.70;100.00;97676.69;10318073;28;20046;-62
2021/11/25 11:06:59;;;;;;;29.45;20.52;;;;;;;1.71;100.00;97653.63;10322373;28;20062;-65
2021/11/25 11:12:18;;;;;;;33.75;22.15;;;;;;;1.71;100.00;97658.94;10325456;28;20126;-64
2021/11/25 11:17:28;;;;;;;30.08;20.83;;;;;;;1.74;100.00;97651.56;10317833;28;20129;-65
2021/11/25 11:22:31;;;;;;;29.25;20.95;;;;;;;1.79;100.00;97636.13;10324753;28;20553;-68
2021/11/25 11:27:35;;;;;;;29.55;20.02;;;;;;;1.81;100.00;97626.22;10326168;28;20050;-60
2021/11/25 11:32:40;;;;;;;27.77;19.85;;;;;;;1.89;100.00;97611.44;10321383;28;20113;-64
2021/11/25 11:37:45;;;;;;;28.92;20.77;;;;;;;1.94;100.00;97617.25;10337653;28;20058;-59
2021/11/25 11:42:50;;;;;;;30.88;19.98;;;;;;;1.91;100.00;97620.13;10321798;28;20455;-63
2021/11/25 11:47:58;;;;;;;29.98;20.02;;;;;;;1.89;100.00;97620.25;10323582;28;20050;-57
2021/11/25 11:53:03;;;;;;;30.95;20.15;;;;;;;1.89;100.00;97620.25;10328803;28;20343;-58
2021/11/25 11:58:29;;;;;;;31.17;20.80;;;;;;;1.93;100.00;97610.25;10327091;28;20042;-62
2021/11/25 12:03:36;;;;;;;34.90;21.42;;;;;;;1.94;100.00;97604.78;10327877;28;20057;-64
2021/11/25 12:08:46;;;;;;;29.90;21.15;;;;;;;1.93;100.00;97596.97;10326807;28;20065;-59
2021/11/25 12:14:07;;;;;;;31.45;21.90;;;;;;;1.89;100.00;97608.78;10331723;28;20042;-65
2021/11/25 12:19:12;;;;;;;31.20;21.60;;;;;;;1.91;100.00;97612.16;10332194;28;20074;-59
2021/11/25 12:24:42;;;;;;;34.95;22.65;;;;;;;1.89;100.00;97616.75;10344267;28;20427;-61
2021/11/25 12:30:04;;;;;;;32.00;21.73;;;;;;;1.88;100.00;97602.66;10324900;28;20053;-57
2021/11/25 12:35:40;;;;;;;;;;;;;;;1.80;100.00;97594.44;10328173;28;20470;-60
2021/11/25 12:40:58;;;;;;;34.22;21.40;;;;;;;1.82;100.00;97598.66;10325139;28;20400;-59
2021/11/25 12:46:08;;;;;;;19.90;14.15;;;;;;;1.86;100.00;97575.38;10329014;28;20046;-64
2021/11/25 12:51:14;;;;;;;13.93;10.70;;;;;;;1.94;100.00;97558.81;10327766;28;20081;-61
2021/11/25 12:56:22;;;;;;;13.82;9.95;;;;;;;1.97;100.00;97542.59;10334945;28;20073;-60
2021/11/25 13:01:28;;;;;;;14.27;8.80;;;;;;;2.00;100.00;97553.78;10339315;28;20137;-60
2021/11/25 13:06:34;;;;;;;12.52;9.00;;;;;;;2.02;100.00;97556.34;10334996;28;20130;-61
2021/11/25 13:11:40;;;;;;;14.63;9.88;;;;;;;2.01;100.00;97559.97;10355363;28;20047;-62
2021/11/25 13:16:45;;;;;;;11.85;8.90;;;;;;;2.00;100.00;97552.97;10373356;28;20038;-64
2021/11/25 13:21:50;;;;;;;17.30;10.02;;;;;;;1.99;100.00;97556.59;10350474;28;20077;-63
2021/11/25 13:27:01;;;;;;;12.63;10.23;;;;;;;1.99;100.00;97556.59;10321994;28;20062;-64
2021/11/25 13:32:06;;;;;;;13.27;10.47;;;;;;;1.94;100.00;97550.84;10320886;28;20153;-60
2021/11/25 13:37:12;;;;;;;13.98;10.68;;;;;;;1.94;100.00;97554.31;10326486;28;20054;-63
2021/11/25 13:42:18;;;;;;;16.23;11.80;;;;;;;1.95;100.00;97558.66;10322806;28;20049;-63
2021/11/25 13:47:23;;;;;;;14.10;10.52;;;;;;;1.88;100.00;97549.53;10323427;28;20053;-62
2021/11/25 13:52:30;;;;;;;13.80;10.15;;;;;;;1.86;100.00;97551.47;10322787;28;20491;-63
2021/11/25 13:57:37;;;;;;;16.38;10.23;;;;;;;1.84;100.00;97559.53;10322629;28;20038;-63
2021/11/25 14:02:41;;;;;;;13.70;11.02;;;;;;;1.80;100.00;97563.44;10324444;28;20507;-61
2021/11/25 14:07:45;;;;;;;16.23;11.95;;;;;;;1.79;100.00;97571.53;10323639;28;20058;-63
2021/11/25 14:12:51;;;;;;;15.27;11.43;;;;;;;1.73;100.00;97553.44;10321162;28;20113;-63
2021/11/25 14:17:55;;;;;;;17.73;12.98;;;;;;;1.69;100.00;97556.34;10337386;28;20077;-56
2021/11/25 14:23:01;;;;;;;17.90;13.30;;;;;;;1.68;100.00;97559.97;10323939;28;20135;-62
2021/11/25 14:33:46;;;;;;;14.93;11.80;;;;;;;1.64;100.00;97553.25;10322006;28;20046;-62
2021/11/25 14:38:49;;;;;;;13.77;11.80;;;;;;;1.60;100.00;97556.25;10323498;28;20054;-63
2021/11/25 14:44:01;;;;;;;15.20;12.05;;;;;;;1.62;100.00;97562.28;10322642;28;20054;-62
2021/11/25 14:49:06;;;;;;;14.20;12.32;;;;;;;1.61;100.00;97579.19;10319732;28;20052;-60
2021/11/25 14:54:15;;;;;;;17.52;12.93;;;;;;;1.63;100.00;97561.31;10322921;28;20046;-60
2021/11/25 14:59:22;;;;;;;17.17;14.57;;;;;;;1.62;100.00;97555.19;10337285;28;20045;-63
2021/11/25 15:04:26;;;;;;;15.90;13.50;;;;;;;1.65;100.00;97557.56;10319888;28;20126;-64
2021/11/25 15:09:29;;;;;;;16.20;13.93;;;;;;;1.63;100.00;97572.81;10342882;28;20461;-64
2021/11/25 15:14:38;;;;;;;17.83;15.68;;;;;;;1.64;100.00;97578.94;10321617;28;20065;-65
2021/11/25 15:19:41;;;;;;;20.83;16.42;;;;;;;1.61;100.00;97577.38;10315037;28;20038;-62
2021/11/25 15:24:44;;;;;;;20.02;16.17;;;;;;;1.61;100.00;97577.38;10321272;28;20055;-62
2021/11/25 15:29:49;;;;;;;19.67;16.00;;;;;;;1.60;100.00;97574.84;10319521;28;20046;-62
2021/11/25 15:34:54;;;;;;;20.90;16.38;;;;;;;1.61;100.00;97576.53;10336826;28;20061;-61
2021/11/25 15:39:59;;;;;;;18.60;15.68;;;;;;;1.61;100.00;97571.22;10320034;28;20039;-57
2021/11/25 15:45:05;;;;;;;19.00;16.30;;;;;;;1.64;100.00;97563.00;10333860;28;20057;-64
2021/11/25 15:50:09;;;;;;;18.80;15.82;;;;;;;1.63;100.00;97566.63;10316765;28;20517;-62
2021/11/25 15:55:12;;;;;;;20.92;16.50;;;;;;;1.64;100.00;97581.59;10320212;28;20042;-59
2021/11/25 16:00:17;;;;;;;18.52;15.55;;;;;;;1.64;100.00;97568.31;10333692;28;20054;-60
2021/11/25 16:05:22;;;;;;;19.27;16.52;;;;;;;1.66;100.00;97572.53;10328627;28;20140;-62
2021/11/25 16:10:32;;;;;;;20.77;16.98;;;;;;;1.68;100.00;97575.06;10359264;28;20132;-62
2021/11/25 16:15:41;;;;;;;20.88;16.83;;;;;;;1.69;100.00;97577.59;10359399;28;20038;-60
2021/11/25 16:20:46;;;;;;;;;;;;;;;1.65;100.00;97567.34;10358835;28;20042;-55
2021/11/25 16:25:49;;;;;;;22.90;18.00;;;;;;;1.73;100.00;97561.41;10362288;28;20015;-61
2021/11/25 16:30:57;;;;;;;22.38;18.25;;;;;;;1.74;100.00;97561.28;10360275;28;20413;-55
2021/11/25 16:36:00;;;;;;;22.02;18.05;;;;;;;1.74;100.00;97566.59;10358074;28;20042;-56
2021/11/25 16:41:04;;;;;;;25.73;18.23;;;;;;;1.73;100.00;97559.59;10367511;28;20042;-57
2021/11/25 16:46:08;;;;;;;21.67;16.50;;;;;;;1.75;100.00;97564.78;10367546;28;20042;-62
2021/11/25 16:51:14;;;;;;;21.50;17.05;;;;;;;1.76;100.00;97556.69;10366956;28;20054;-61
2021/11/25 16:56:17;;;;;;;27.00;21.77;;;;;;;1.78;100.00;97554.75;10366653;28;20582;-56
2021/11/25 17:01:21;;;;;;;25.42;21.48;;;;;;;1.78;100.00;97546.78;10368704;28;20034;-58
2021/11/25 17:06:25;;;;;;;25.67;21.10;;;;;;;1.79;100.00;97551.13;10344962;28;20050;-59
2021/11/25 17:11:28;;;;;;;28.17;20.92;;;;;;;1.80;100.00;97542.19;10325249;28;20042;-56
2021/11/25 17:16:34;;;;;;;27.77;20.05;;;;;;;1.78;100.00;97528.19;10320086;28;20074;-67
2021/11/25 17:21:37;;;;;;;26.05;19.55;;;;;;;1.76;100.00;97529.31;10323623;28;20474;-58
2021/11/25 17:26:41;;;;;;;24.77;19.10;;;;;;;1.71;100.00;97532.31;10320804;28;20042;-58
2021/11/25 17:31:45;;;;;;;23.42;17.52;;;;;;;1.70;100.00;97530.66;10323752;28;20044;-55
2021/11/25 17:36:49;;;;;;;21.55;17.30;;;;;;;1.67;100.00;97541.53;10341372;28;20954;-58
2021/11/25 17:41:52;;;;;;;25.60;17.15;;;;;;;1.62;100.00;97543.72;10322826;28;20045;-60
2021/11/25 17:46:56;;;;;;;24.08;17.73;;;;;;;1.60;100.00;97541.19;10325490;28;20134;-60
2021/11/25 17:52:00;;;;;;;23.45;18.23;;;;;;;1.53;100.00;97546.16;10325023;28;20122;-56
2021/11/25 17:57:04;;;;;;;23.40;18.50;;;;;;;1.48;100.00;97556.28;10325488;28;20086;-66
2021/11/25 18:02:09;;;;;;;24.35;19.40;;;;;;;1.36;100.00;97552.00;10323484;28;20563;-56
2021/11/25 18:07:12;;;;;;;24.63;19.20;;;;;;;1.35;100.00;97552.97;10344864;28;20054;-54
2021/11/25 18:12:16;;;;;;;27.63;18.90;;;;;;;1.32;100.00;97554.06;10362297;28;20173;-55
2021/11/25 18:17:22;;;;;;;23.63;17.75;;;;;;;1.29;100.00;97564.06;10360678;28;20060;-58
2021/11/25 18:22:26;;;;;;;25.38;18.88;;;;;;;1.29;100.00;97566.72;10364714;28;20088;-61
2021/11/25 18:27:30;;;;;;;24.63;19.23;;;;;;;1.28;100.00;97565.03;10364016;28;20402;-58
2021/11/25 18:32:35;;;;;;;25.67;19.25;;;;;;;1.25;100.00;97567.94;10363056;28;20049;-55
2021/11/25 18:37:38;;;;;;;26.92;19.05;;;;;;;1.21;100.00;97565.56;10366311;28;20125;-58
2021/11/25 18:42:43;;;;;;;23.70;18.10;;;;;;;1.20;100.00;97566.50;10361392;28;20038;-63
2021/11/25 18:47:48;;;;;;;25.00;19.13;;;;;;;1.22;100.00;97561.06;10359832;28;20050;-57
2021/11/25 18:52:51;;;;;;;22.83;17.20;;;;;;;1.23;100.00;97560.94;10361738;28;20137;-53
2021/11/25 18:57:55;;;;;;;23.58;17.63;;;;;;;1.25;100.00;97549.38;10361994;28;20104;-59
2021/11/25 19:02:59;;;;;;;23.48;16.88;;;;;;;1.27;100.00;97552.75;10359162;28;20054;-57
2021/11/25 19:08:02;;;;;;;22.90;16.48;;;;;;;1.28;100.00;97546.47;10329847;28;20058;-59
2021/11/25 19:13:07;;;;;;;20.38;16.45;;;;;;;1.30;100.00;97545.38;10325815;28;20792;-61
2021/11/25 19:18:11;;;;;;;22.13;17.00;;;;;;;1.33;100.00;97552.25;10323566;28;20093;-56
2021/11/25 19:23:14;;;;;;;19.60;14.85;;;;;;;1.36;100.00;97538.72;10324552;28;20042;-60
2021/11/25 19:28:17;;;;;;;20.25;15.35;;;;;;;1.38;100.00;97529.69;10320630;28;20050;-66
2021/11/25 19:33:22;;;;;;;18.15;14.63;;;;;;;1.41;100.00;97525.94;10337855;28;20088;-60
2021/11/25 19:38:26;;;;;;;21.40;16.88;;;;;;;1.44;100.00;97527.47;10318048;28;20034;-60
2021/11/25 19:43:30;;;;;;;20.13;16.23;;;;;;;1.45;100.00;97526.50;10322464;28;20529;-60
2021/11/25 19:48:35;;;;;;;19.17;14.55;;;;;;;1.46;100.00;97529.06;10319861;28;20042;-59
2021/11/25 19:53:43;;;;;;;17.88;14.00;;;;;;;1.48;100.00;97521.78;10321009;28;20384;-65
2021/11/25 20:05:24;;;;;;;19.52;14.55;;;;;;;1.50;100.00;97521.69;10313442;28;20069;-64
2021/11/25 20:10:28;;;;;;;19.40;14.68;;;;;;;1.51;100.00;97526.84;10323443;28;20415;-66
2021/11/25 20:15:32;;;;;;;16.65;13.45;;;;;;;1.56;100.00;97525.66;10327524;28;20580;-59
2021/11/25 20:20:36;;;;;;;17.45;13.93;;;;;;;1.59;100.00;97520.91;10323820;28;20061;-59
2021/11/25 20:25:39;;;;;;;17.45;13.82;;;;;;;1.62;100.00;97518.03;10326712;28;20049;-56
2021/11/25 20:30:42;;;;;;;17.08;14.48;;;;;;;1.65;100.00;97511.59;10331009;28;20042;-61
2021/11/25 20:35:50;;;;;;;15.65;13.95;;;;;;;1.69;100.00;97507.72;10327859;28;20072;-62
2021/11/25 20:40:53;;;;;;;19.15;15.38;;;;;;;1.71;100.00;97497.81;10324261;28;20695;-63
2021/11/25 20:45:57;;;;;;;20.60;16.50;;;;;;;1.69;100.00;97489.16;10334719;28;20109;-62
2021/11/25 20:51:02;;;;;;;22.63;17.15;;;;;;;1.68;100.00;97492.78;10328149;28;20042;-62
2021/11/25 20:56:05;;;;;;;21.55;16.60;;;;;;;1.68;100.00;97492.78;10331742;28;20050;-60
2021/11/25 21:01:11;;;;;;;21.65;17.10;;;;;;;1.67;100.00;97499.03;10331470;28;20049;-67
2021/11/25 21:06:17;;;;;;;20.35;17.08;;;;;;;1.65;100.00;97496.50;10358747;28;20145;-63
2021/11/25 21:11:21;;;;;;;22.25;16.63;;;;;;;1.64;100.00;97486.88;10349724;28;20042;-65
2021/11/25 21:16:25;;;;;;;20.83;15.13;;;;;;;1.65;100.00;97475.25;10320964;28;20061;-64
2021/11/25 21:21:29;;;;;;;23.63;16.42;;;;;;;1.63;100.00;97482.53;10322035;28;20435;-62
2021/11/25 21:26:33;;;;;;;22.30;15.63;;;;;;;1.64;100.00;97483.38;10305915;28;20121;-62
2021/11/25 21:31:37;;;;;;;23.05;16.77;;;;;;;1.62;100.00;97478.19;10322747;28;20050;-62
2021/11/25 21:36:42;;;;;;;21.00;15.82;;;;;;;1.62;100.00;97464.91;10307983;28;20042;-63
2021/11/25 21:41:45;;;;;;;21.80;16.00;;;;;;;1.61;100.00;97451.75;10308227;28;20109;-64
2021/11/25 21:46:49;;;;;;;21.55;16.10;;;;;;;1.62;100.00;97445.47;10319102;28;20861;-64
2021/11/25 21:51:54;;;;;;;21.42;15.73;;;;;;;1.59;100.00;97451.06;10306649;28;20042;-64
2021/11/25 21:56:57;;;;;;;19.65;15.02;;;;;;;1.57;100.00;97450.34;10319888;28;20046;-64
2021/11/25 22:02:01;;;;;;;19.05;15.50;;;;;;;1.54;100.00;97441.66;10305827;28;20050;-63
2021/11/25 22:07:06;;;;;;;19.45;15.75;;;;;;;1.56;100.00;97438.03;10337295;28;20066;-64
2021/11/25 22:12:09;;;;;;;19.92;15.73;;;;;;;1.60;100.00;97439.44;10363773;28;20128;-61
2021/11/25 22:17:12;;;;;;;20.38;15.95;;;;;;;1.68;100.00;97450.28;10359407;28;20426;-63
2021/11/25 22:27:39;;;;;;;20.70;16.05;;;;;;;1.80;100.00;97457.22;10359767;28;20123;-60
2021/11/25 22:32:42;;;;;;;19.85;15.68;;;;;;;1.95;100.00;97460.38;10360208;28;20411;-65
2021/11/25 22:37:47;;;;;;;19.23;15.40;;;;;;;2.06;100.00;97451.47;10361076;28;20056;-58
2021/11/25 22:42:59;;;;;;;19.25;15.55;;;;;;;2.06;100.00;97435.53;10361642;28;20050;-57
2021/11/25 22:48:02;;;;;;;19.52;15.80;;;;;;;2.12;100.00;97437.69;10357993;28;20562;-60
2021/11/25 22:53:06;;;;;;;17.65;15.10;;;;;;;2.20;100.00;97428.19;10360325;28;20050;-60
2021/11/25 22:58:10;;;;;;;20.05;15.45;;;;;;;2.22;100.00;97428.91;10359815;28;20049;-61
2021/11/25 23:03:18;;;;;;;21.40;16.35;;;;;;;2.26;100.00;97414.38;10358483;28;20088;-60
2021/11/25 23:14:34;;;;;;;21.73;17.02;;;;;;;2.26;100.00;97390.47;10319047;28;20105;-59
2021/11/25 23:19:37;;;;;;;21.10;15.90;;;;;;;2.26;100.00;97393.94;10316277;28;20557;-57
2021/11/25 23:24:40;;;;;;;20.20;15.65;;;;;;;2.21;100.00;97388.22;10302795;28;20093;-59
2021/11/25 23:29:45;;;;;;;21.75;16.80;;;;;;;2.23;100.00;97394.25;10302134;28;20046;-57
2021/11/25 23:34:48;;;;;;;19.75;15.55;;;;;;;2.22;100.00;97381.94;10301740;28;20062;-56